Time;durP1;ratioP1;P1;durP2;ratioP2;P2;SDS_P1;SDS_P2;PMS_P1;PMS_P2;Temp;Humidity;BMP_temperature;BMP_pressure;BME280_temperature;BME280_humidity;BME280_pressure;Samples;Min_cycle;Max_cycle;Signal;HPM_P1;HPM_P2
2024/02/17 00:00:06;;;;;;;12.50;4.70;;;;;;;5.01;57.42;101871.53;105327;1260;60634;-62
2024/02/17 00:02:34;;;;;;;11.50;3.60;;;;;;;4.96;57.37;101869.45;106411;1257;61348;-63
2024/02/17 00:05:02;;;;;;;12.40;4.90;;;;;;;4.90;57.55;101861.99;105498;1257;65385;-62
2024/02/17 00:07:30;;;;;;;9.30;3.20;;;;;;;4.87;57.67;101861.05;106703;1257;61362;-62
2024/02/17 00:09:58;;;;;;;9.80;4.00;;;;;;;4.91;57.70;101861.60;105235;1258;63732;-65
2024/02/17 00:12:25;;;;;;;10.90;4.20;;;;;;;4.98;57.50;101861.73;105123;1259;60448;-66
2024/02/17 00:14:53;;;;;;;8.30;3.70;;;;;;;5.01;57.46;101861.09;105184;1260;60385;-65
2024/02/17 00:17:21;;;;;;;10.50;3.50;;;;;;;5.08;57.61;101866.09;105088;1258;63700;-65
2024/02/17 00:19:48;;;;;;;8.10;3.60;;;;;;;5.16;57.66;101866.69;105207;1260;61548;-62
2024/02/17 00:22:16;;;;;;;12.50;4.60;;;;;;;5.24;57.62;101865.36;105088;1260;62513;-64
2024/02/17 00:24:44;;;;;;;10.60;4.30;;;;;;;5.31;57.71;101857.65;105276;1260;60610;-66
2024/02/17 00:27:12;;;;;;;11.60;5.70;;;;;;;5.35;57.51;101858.73;105092;1260;60593;-66
2024/02/17 00:29:39;;;;;;;16.50;4.70;;;;;;;5.35;57.36;101859.94;105230;1259;65363;-61
2024/02/17 00:32:07;;;;;;;7.80;3.40;;;;;;;5.34;57.40;101859.98;105116;1254;61767;-64
2024/02/17 00:34:35;;;;;;;9.80;4.20;;;;;;;5.32;57.28;101859.52;105155;1260;62480;-61
2024/02/17 00:37:03;;;;;;;12.90;4.50;;;;;;;5.29;57.16;101857.73;105204;1254;60500;-61
2024/02/17 00:39:31;;;;;;;10.30;3.90;;;;;;;5.25;57.06;101858.05;105704;1254;60466;-64
2024/02/17 00:41:58;;;;;;;12.90;5.20;;;;;;;5.18;57.14;101853.56;105158;1260;65100;-63
2024/02/17 00:44:26;;;;;;;16.60;7.00;;;;;;;5.13;57.31;101855.15;105236;1260;61351;-61
2024/02/17 00:46:54;;;;;;;11.40;5.50;;;;;;;5.06;57.37;101860.40;105134;1260;63778;-61
2024/02/17 00:49:21;;;;;;;12.80;4.30;;;;;;;5.01;57.55;101855.52;105138;1255;60818;-63
2024/02/17 00:51:49;;;;;;;10.40;5.00;;;;;;;4.98;57.64;101846.23;106033;1260;59332;-63
2024/02/17 00:54:17;;;;;;;12.40;5.40;;;;;;;4.92;57.71;101846.96;105289;1255;63711;-63
2024/02/17 00:56:45;;;;;;;14.30;6.00;;;;;;;4.88;57.85;101848.14;105191;1263;61259;-61
2024/02/17 00:59:14;;;;;;;13.30;7.00;;;;;;;4.82;57.86;101842.77;105182;1259;63640;-61
2024/02/17 01:01:43;;;;;;;9.90;4.30;;;;;;;4.78;57.95;101839.42;106157;1257;60523;-62
2024/02/17 01:04:10;;;;;;;13.20;4.70;;;;;;;4.81;57.91;101840.70;105129;1260;60425;-62
2024/02/17 01:06:38;;;;;;;8.60;4.00;;;;;;;4.88;57.93;101834.05;105035;1254;63782;-63
2024/02/17 01:09:07;;;;;;;12.50;3.80;;;;;;;4.94;57.95;101829.50;105528;1260;61370;-60
2024/02/17 01:11:35;;;;;;;10.50;3.40;;;;;;;4.99;57.99;101832.64;105080;1259;62554;-61
2024/02/17 01:14:03;;;;;;;9.10;4.30;;;;;;;5.07;58.00;101832.20;105083;1258;60757;-62
2024/02/17 01:16:30;;;;;;;15.00;5.00;;;;;;;5.12;57.90;101832.91;105818;1260;60593;-61
2024/02/17 01:18:58;;;;;;;10.60;5.60;;;;;;;5.11;58.06;101835.38;105197;1260;63623;-61
2024/02/17 01:21:30;;;;;;;9.70;5.00;;;;;;;5.08;58.02;101834.23;105649;1260;60469;-60
2024/02/17 01:23:58;;;;;;;11.90;4.90;;;;;;;5.08;58.00;101833.38;105676;1262;62443;-60
2024/02/17 01:26:27;;;;;;;12.40;4.50;;;;;;;5.06;57.90;101832.39;105769;1260;60383;-61
2024/02/17 01:28:55;;;;;;;15.50;5.90;;;;;;;5.05;57.93;101831.92;105807;1260;60447;-63
2024/02/17 01:31:22;;;;;;;13.60;6.30;;;;;;;5.02;57.88;101829.92;105757;1257;64445;-63
2024/02/17 01:33:51;;;;;;;12.50;6.50;;;;;;;4.97;57.92;101828.88;105211;1260;69189;-60
2024/02/17 01:36:19;;;;;;;12.60;6.60;;;;;;;4.93;58.13;101830.58;105755;1259;62516;-62
2024/02/17 01:38:47;;;;;;;12.50;5.00;;;;;;;4.91;58.18;101832.23;105142;1262;60585;-64
2024/02/17 01:41:15;;;;;;;12.70;5.10;;;;;;;4.88;58.17;101830.56;105217;1254;61755;-62
2024/02/17 01:43:42;;;;;;;13.90;6.00;;;;;;;4.84;58.20;101830.52;105288;1263;64852;-63
2024/02/17 01:46:10;;;;;;;15.20;6.00;;;;;;;4.80;58.20;101833.60;105299;1260;61596;-61
2024/02/17 01:48:38;;;;;;;12.80;6.00;;;;;;;4.74;58.26;101836.59;105328;1260;63807;-61
2024/02/17 01:51:06;;;;;;;11.30;4.90;;;;;;;4.70;58.38;101831.86;105156;1260;60561;-60
2024/02/17 01:53:34;;;;;;;12.60;5.30;;;;;;;4.67;58.34;101832.98;105485;1260;60629;-59
2024/02/17 01:56:01;;;;;;;8.90;3.40;;;;;;;4.69;58.30;101835.19;105041;1260;65372;-61
2024/02/17 01:58:29;;;;;;;12.50;4.60;;;;;;;4.76;58.36;101831.84;105120;1260;61559;-61
2024/02/17 02:00:57;;;;;;;9.90;4.40;;;;;;;4.84;58.34;101829.49;105169;1257;62498;-61
2024/02/17 02:03:25;;;;;;;13.30;5.70;;;;;;;4.91;58.35;101827.36;105677;1260;60367;-59
2024/02/17 02:05:52;;;;;;;13.70;5.00;;;;;;;4.98;58.37;101827.29;105073;1261;59314;-60
2024/02/17 02:08:20;;;;;;;11.20;5.30;;;;;;;5.06;58.30;101830.16;105926;1260;63654;-60
2024/02/17 02:10:48;;;;;;;12.20;6.70;;;;;;;5.12;58.35;101831.54;105057;1262;61354;-60
2024/02/17 02:13:17;;;;;;;13.00;5.40;;;;;;;5.13;58.34;101824.17;105109;1257;64196;-60
2024/02/17 02:15:45;;;;;;;16.40;7.60;;;;;;;5.11;58.38;101825.97;105115;1259;60553;-63
2024/02/17 02:18:21;;;;;;;17.50;7.70;;;;;;;5.12;58.31;101826.47;105027;1254;60323;-63
2024/02/17 02:20:50;;;;;;;16.20;6.70;;;;;;;5.09;58.20;101826.41;105304;1254;63882;-61
2024/02/17 02:23:17;;;;;;;13.90;5.70;;;;;;;5.03;58.20;101823.61;105296;1262;61684;-62
2024/02/17 02:25:50;;;;;;;14.10;6.00;;;;;;;4.98;58.13;101817.54;105252;1257;63728;-60
2024/02/17 02:28:18;;;;;;;16.60;6.20;;;;;;;4.89;58.04;101814.36;105294;1257;60382;-64
2024/02/17 02:30:46;;;;;;;17.90;6.80;;;;;;;4.79;58.14;101815.73;105194;1260;60758;-63
2024/02/17 02:33:17;;;;;;;13.80;5.70;;;;;;;4.71;58.32;101815.81;105154;1259;63704;-66
2024/02/17 02:35:45;;;;;;;16.80;6.50;;;;;;;4.62;58.32;101811.59;105290;1260;60535;-64
2024/02/17 02:38:13;;;;;;;15.00;6.80;;;;;;;4.56;58.55;101807.59;105019;1255;63707;-59
2024/02/17 02:40:40;;;;;;;18.80;6.40;;;;;;;4.54;58.61;101809.25;105082;1255;61109;-62
2024/02/17 02:43:11;;;;;;;34.30;19.20;;;;;;;4.51;58.70;101806.92;105256;1260;60478;-62
2024/02/17 02:45:39;;;;;;;16.10;5.80;;;;;;;4.48;58.79;101804.23;105142;1254;63618;-62
2024/02/17 02:48:07;;;;;;;12.80;5.70;;;;;;;4.53;58.79;101801.63;105225;1260;60539;-61
2024/02/17 02:50:35;;;;;;;15.30;4.70;;;;;;;4.62;58.72;101801.87;105505;1259;62454;-63
2024/02/17 02:53:02;;;;;;;17.60;7.70;;;;;;;4.71;58.77;101803.66;105202;1260;60535;-64
2024/02/17 02:55:30;;;;;;;14.10;6.00;;;;;;;4.80;58.84;101804.41;105182;1259;60495;-65
2024/02/17 02:57:58;;;;;;;16.60;7.70;;;;;;;4.89;58.82;101803.23;105152;1254;66156;-66
2024/02/17 03:00:26;;;;;;;15.00;8.50;;;;;;;4.95;58.77;101805.98;105410;1256;60441;-64
2024/02/17 03:02:55;;;;;;;15.50;7.60;;;;;;;4.96;58.71;101803.34;106056;1256;62780;-67
2024/02/17 03:05:23;;;;;;;18.90;8.30;;;;;;;4.98;58.82;101799.11;106924;1253;60491;-66
2024/02/17 03:07:51;;;;;;;16.50;8.10;;;;;;;4.97;58.53;101796.00;105335;1251;60505;-65
2024/02/17 03:10:19;;;;;;;19.40;9.70;;;;;;;4.90;58.30;101793.65;105441;1256;64940;-63
2024/02/17 03:12:47;;;;;;;16.10;8.00;;;;;;;4.81;58.42;101791.87;105521;1251;61497;-63
2024/02/17 03:15:15;;;;;;;13.40;6.90;;;;;;;4.73;58.49;101790.02;105393;1257;62419;-64
2024/02/17 03:17:42;;;;;;;18.70;7.80;;;;;;;4.69;58.71;101790.52;105392;1253;60651;-62
2024/02/17 03:20:11;;;;;;;13.30;5.80;;;;;;;4.66;58.75;101788.35;105500;1251;60516;-64
2024/02/17 03:22:38;;;;;;;16.50;8.30;;;;;;;4.63;58.83;101784.98;105579;1257;64986;-61
2024/02/17 03:25:07;;;;;;;20.50;7.10;;;;;;;4.60;59.06;101782.10;106651;1251;61289;-63
2024/02/17 03:27:34;;;;;;;18.20;7.80;;;;;;;4.59;59.06;101779.02;106563;1253;62526;-62
2024/02/17 03:30:06;;;;;;;14.90;8.20;;;;;;;4.57;59.09;101782.20;105405;1256;60484;-61
2024/02/17 03:32:34;;;;;;;18.30;7.10;;;;;;;4.59;59.11;101779.73;105736;1251;60510;-61
2024/02/17 03:35:03;;;;;;;19.10;6.90;;;;;;;4.65;59.02;101780.91;105469;1251;63625;-63
2024/02/17 03:37:31;;;;;;;13.70;6.70;;;;;;;4.73;59.10;101783.43;105396;1257;61416;-63
2024/02/17 03:39:59;;;;;;;17.10;6.80;;;;;;;4.79;59.11;101781.48;105926;1254;73201;-63
2024/02/17 03:42:27;;;;;;;18.60;8.30;;;;;;;4.84;59.06;101781.86;105334;1257;60587;-62
2024/02/17 03:44:55;;;;;;;23.80;10.20;;;;;;;4.87;59.03;101784.02;105525;1256;60501;-69
2024/02/17 03:47:22;;;;;;;22.80;11.30;;;;;;;4.84;58.98;101781.84;105354;1255;64901;-64
2024/02/17 03:49:50;;;;;;;19.50;9.30;;;;;;;4.82;59.14;101782.07;105441;1254;61405;-65
2024/02/17 03:52:18;;;;;;;20.10;9.20;;;;;;;4.81;59.12;101783.16;105369;1254;63699;-60
2024/02/17 03:54:46;;;;;;;16.60;8.40;;;;;;;4.79;59.23;101779.93;106268;1254;60536;-58
2024/02/17 03:57:15;;;;;;;42.70;11.40;;;;;;;4.73;59.18;101777.16;105463;1254;60434;-62
2024/02/17 03:59:43;;;;;;;24.40;9.90;;;;;;;4.63;59.06;101774.20;105503;1256;65469;-61
2024/02/17 04:02:11;;;;;;;22.20;10.10;;;;;;;4.53;59.18;101773.65;105268;1257;61037;-62
2024/02/17 04:04:39;;;;;;;21.00;9.70;;;;;;;4.45;59.32;101773.38;105533;1258;62445;-62
2024/02/17 04:07:07;;;;;;;19.50;7.30;;;;;;;4.38;59.44;101768.77;105561;1257;60556;-63
2024/02/17 04:09:35;;;;;;;21.00;9.80;;;;;;;4.30;59.67;101767.95;105651;1257;60415;-62
2024/02/17 04:12:04;;;;;;;19.50;9.20;;;;;;;4.24;59.84;101765.70;105729;1251;63704;-62
2024/02/17 04:14:31;;;;;;;16.50;5.60;;;;;;;4.24;59.85;101767.44;105847;1253;61351;-66
2024/02/17 04:16:59;;;;;;;24.00;9.10;;;;;;;4.29;59.73;101765.55;105326;1255;62640;-64
2024/02/17 04:19:26;;;;;;;19.80;7.20;;;;;;;4.36;59.88;101761.16;105437;1254;60520;-64
2024/02/17 04:21:55;;;;;;;15.60;5.00;;;;;;;4.43;60.04;101762.17;106140;1256;60463;-61
2024/02/17 04:24:22;;;;;;;17.00;7.80;;;;;;;4.48;59.94;101760.95;105468;1251;64961;-59
2024/02/17 04:26:50;;;;;;;22.90;10.70;;;;;;;4.51;60.09;101757.91;105915;1257;60399;-63
2024/02/17 04:29:19;;;;;;;18.10;7.80;;;;;;;4.53;60.15;101760.96;105450;1254;63796;-66
2024/02/17 04:31:47;;;;;;;17.90;7.00;;;;;;;4.53;60.10;101757.84;105431;1257;60620;-70
2024/02/17 04:34:15;;;;;;;13.30;6.60;;;;;;;4.50;60.01;101759.32;105217;1251;60601;-63
2024/02/17 04:36:43;;;;;;;16.20;7.30;;;;;;;4.45;60.00;101760.70;105427;1255;64923;-67
2024/02/17 04:39:13;;;;;;;18.40;9.10;;;;;;;4.39;59.89;101763.16;105581;1257;60456;-68
2024/02/17 04:41:41;;;;;;;18.70;7.60;;;;;;;4.30;59.97;101761.18;105577;1257;62878;-61
2024/02/17 04:44:08;;;;;;;18.80;9.00;;;;;;;4.22;60.05;101761.95;105387;1251;61350;-63
2024/02/17 04:46:36;;;;;;;18.60;7.50;;;;;;;4.13;60.09;101763.27;105500;1251;60552;-65
2024/02/17 04:49:03;;;;;;;19.10;9.50;;;;;;;4.05;60.21;101763.15;105355;1251;64911;-65
2024/02/17 04:51:31;;;;;;;18.90;7.00;;;;;;;4.00;60.37;101763.48;105710;1254;60510;-60
2024/02/17 04:54:03;;;;;;;16.40;6.90;;;;;;;3.96;60.63;101757.71;105320;1252;63764;-62
2024/02/17 04:56:30;;;;;;;13.30;5.90;;;;;;;3.97;60.61;101758.90;105807;1257;60626;-60
2024/02/17 04:58:58;;;;;;;12.20;5.50;;;;;;;4.02;60.53;101759.97;105878;1252;59540;-62
2024/02/17 05:01:26;;;;;;;16.90;5.60;;;;;;;4.07;60.46;101762.60;105220;1257;65043;-64
2024/02/17 05:03:54;;;;;;;15.70;6.60;;;;;;;4.13;60.54;101761.70;106024;1256;60441;-64
2024/02/17 05:06:22;;;;;;;16.80;5.20;;;;;;;4.19;60.43;101764.98;105430;1257;62537;-65
2024/02/17 05:08:50;;;;;;;19.40;7.70;;;;;;;4.20;60.30;101763.39;105504;1257;60585;-63
2024/02/17 05:11:17;;;;;;;15.70;6.80;;;;;;;4.16;60.28;101757.95;105487;1252;60353;-59
2024/02/17 05:13:45;;;;;;;16.80;7.90;;;;;;;4.15;60.27;101763.71;105525;1250;65013;-60
2024/02/17 05:16:13;;;;;;;17.50;8.10;;;;;;;4.14;60.24;101763.07;105400;1251;61692;-67
2024/02/17 05:18:41;;;;;;;16.70;8.10;;;;;;;4.15;60.23;101763.03;106190;1256;62563;-64
2024/02/17 05:21:10;;;;;;;22.60;9.60;;;;;;;4.15;60.10;101764.95;105683;1257;60550;-63
2024/02/17 05:23:38;;;;;;;20.10;7.60;;;;;;;4.13;60.04;101767.79;105581;1253;59640;-62
2024/02/17 05:26:05;;;;;;;19.00;8.30;;;;;;;4.07;59.95;101769.35;105305;1251;63687;-67
2024/02/17 05:28:33;;;;;;;21.30;9.10;;;;;;;4.00;59.95;101772.16;105351;1251;62109;-67
2024/02/17 05:31:01;;;;;;;17.80;9.40;;;;;;;3.94;59.98;101772.70;105783;1257;71734;-70
2024/02/17 05:33:28;;;;;;;15.30;7.10;;;;;;;3.88;59.93;101775.33;105893;1254;61444;-66
2024/02/17 05:35:56;;;;;;;15.50;7.30;;;;;;;3.80;60.01;101778.85;105676;1256;301175;-69
2024/02/17 05:49:59;;;;;;;18.90;7.30;;;;;;;3.86;60.41;101776.63;102750;1282;605810;-62
2024/02/17 05:52:28;;;;;;;14.00;6.40;;;;;;;4.50;59.00;101776.19;105301;1260;113691;-62
2024/02/17 05:54:55;;;;;;;19.40;7.30;;;;;;;4.45;59.05;101777.91;105494;1259;59328;-62
2024/02/17 05:57:23;;;;;;;17.50;7.60;;;;;;;4.38;59.23;101778.13;104964;1257;62009;-61
2024/02/17 05:59:51;;;;;;;12.70;5.10;;;;;;;4.32;59.34;101779.18;106175;1258;60089;-65
2024/02/17 06:02:19;;;;;;;12.50;5.10;;;;;;;4.24;59.41;101778.91;104712;1259;63730;-62
2024/02/17 06:04:46;;;;;;;11.40;5.50;;;;;;;4.23;59.34;101777.73;105001;1262;59164;-66
2024/02/17 06:07:15;;;;;;;12.20;5.00;;;;;;;4.26;59.27;101779.88;104904;1259;59330;-67
2024/02/17 06:09:44;;;;;;;10.40;4.40;;;;;;;4.28;59.29;101780.34;104880;1258;62002;-66
2024/02/17 06:12:11;;;;;;;11.90;4.30;;;;;;;4.32;59.47;101785.27;104875;1262;60495;-65
2024/02/17 06:14:39;;;;;;;13.00;5.90;;;;;;;4.38;59.52;101785.92;105138;1259;62539;-66
2024/02/17 06:17:07;;;;;;;14.20;6.20;;;;;;;4.43;59.60;101784.74;104948;1260;59747;-62
2024/02/17 06:22:21;;;;;;;14.30;6.20;;;;;;;4.45;59.43;101782.05;106436;1259;63008;-61
2024/02/17 06:24:49;;;;;;;16.50;7.90;;;;;;;4.41;59.39;101784.83;105032;1262;60254;-60
2024/02/17 06:27:17;;;;;;;17.80;6.50;;;;;;;4.34;59.37;101784.84;104974;1257;63748;-62
2024/02/17 06:29:45;;;;;;;14.10;5.80;;;;;;;4.27;59.37;101784.89;104928;1261;60898;-59
2024/02/17 06:32:12;;;;;;;18.10;8.20;;;;;;;4.21;59.49;101788.57;105008;1262;59647;-61
2024/02/17 06:34:41;;;;;;;14.90;7.10;;;;;;;4.17;59.67;101786.75;105009;1259;62824;-61
2024/02/17 06:37:09;;;;;;;17.60;7.90;;;;;;;4.18;59.80;101785.18;105318;1261;60212;-63
2024/02/17 06:39:37;;;;;;;15.50;7.90;;;;;;;4.17;59.74;101785.54;104848;1259;64738;-63
2024/02/17 06:42:04;;;;;;;16.70;7.30;;;;;;;4.14;59.82;101787.38;104841;1262;59693;-67
2024/02/17 06:44:32;;;;;;;12.50;6.10;;;;;;;4.12;59.92;101786.77;104829;1262;59617;-68
2024/02/17 06:47:00;;;;;;;13.60;5.00;;;;;;;4.12;59.83;101786.92;104771;1256;62821;-65
2024/02/17 06:49:27;;;;;;;12.30;4.90;;;;;;;4.15;59.63;101791.16;104902;1260;61382;-66
2024/02/17 06:51:55;;;;;;;12.90;6.10;;;;;;;4.19;59.63;101788.27;104991;1262;70497;-63
2024/02/17 06:54:23;;;;;;;14.90;5.40;;;;;;;4.24;59.59;101789.52;105448;1262;59640;-58
2024/02/17 06:56:50;;;;;;;13.00;5.80;;;;;;;4.31;59.63;101787.38;104875;1256;59962;-61
2024/02/17 06:59:18;;;;;;;12.90;6.00;;;;;;;4.40;59.62;101785.52;104861;1259;64579;-61
2024/02/17 07:01:46;;;;;;;16.00;7.10;;;;;;;4.46;59.61;101783.95;104916;1259;61365;-62
2024/02/17 07:04:13;;;;;;;18.40;8.40;;;;;;;4.49;59.63;101780.04;104720;1261;62848;-60
2024/02/17 07:06:43;;;;;;;17.00;7.00;;;;;;;4.48;59.68;101777.10;104842;1257;59667;-67
2024/02/17 07:09:19;;;;;;;17.20;7.70;;;;;;;4.49;59.63;101780.38;107544;1259;57432;-62
2024/02/17 07:11:47;;;;;;;16.90;7.60;;;;;;;4.49;59.60;101782.13;104977;1259;62888;-61
2024/02/17 07:14:15;;;;;;;15.50;7.20;;;;;;;4.44;59.39;101778.82;104917;1259;60294;-61
2024/02/17 07:16:43;;;;;;;15.80;6.30;;;;;;;4.38;59.38;101783.33;104736;1262;63890;-58
2024/02/17 07:19:10;;;;;;;14.10;6.30;;;;;;;4.33;59.48;101781.24;104688;1262;59868;-59
2024/02/17 07:21:38;;;;;;;14.60;6.30;;;;;;;4.26;59.60;101784.92;104855;1262;59614;-60
2024/02/17 07:24:06;;;;;;;15.20;6.90;;;;;;;4.19;59.87;101783.95;104798;1259;64036;-59
2024/02/17 07:26:34;;;;;;;19.10;7.80;;;;;;;4.18;60.00;101785.52;104916;1259;61353;-58
2024/02/17 07:29:01;;;;;;;16.50;6.80;;;;;;;4.20;60.19;101786.34;104855;1259;64263;-60
2024/02/17 07:31:31;;;;;;;16.40;6.20;;;;;;;4.24;60.14;101788.10;104920;1262;59763;-59
2024/02/17 07:33:59;;;;;;;15.60;5.60;;;;;;;4.31;59.98;101783.20;105338;1260;59727;-60
2024/02/17 07:36:27;;;;;;;12.40;4.10;;;;;;;4.37;59.86;101785.61;105577;1262;62891;-60
2024/02/17 07:38:55;;;;;;;14.90;5.00;;;;;;;4.45;59.83;101786.91;105705;1259;60271;-60
2024/02/17 07:41:23;;;;;;;16.00;6.60;;;;;;;4.54;59.86;101786.48;104951;1259;74766;-60
2024/02/17 07:43:52;;;;;;;16.30;7.80;;;;;;;4.58;59.95;101788.77;104633;1257;59618;-62
2024/02/17 07:46:20;;;;;;;17.70;7.30;;;;;;;4.62;59.99;101786.91;105628;1259;59687;-59
2024/02/17 07:48:50;;;;;;;15.20;7.50;;;;;;;4.66;59.94;101786.96;104899;1262;64245;-60
2024/02/17 07:51:18;;;;;;;13.10;5.90;;;;;;;4.66;59.78;101782.44;106411;1262;60084;-60
2024/02/17 07:53:45;;;;;;;15.00;6.60;;;;;;;4.63;59.66;101780.45;104602;1260;63730;-60
2024/02/17 07:56:14;;;;;;;20.90;7.80;;;;;;;4.56;59.66;101776.84;104618;1259;59690;-59
2024/02/17 07:58:41;;;;;;;14.20;6.20;;;;;;;4.52;59.74;101777.69;104818;1259;59715;-61
2024/02/17 08:01:09;;;;;;;15.90;6.40;;;;;;;4.49;59.85;101778.46;108780;1258;64217;-60
2024/02/17 08:03:37;;;;;;;13.30;6.50;;;;;;;4.47;59.85;101781.13;108498;1262;62064;-58
2024/02/17 08:06:05;;;;;;;18.60;8.60;;;;;;;4.43;59.84;101782.83;104817;1262;62469;-59
2024/02/17 08:08:32;;;;;;;18.00;8.50;;;;;;;4.39;59.84;101777.21;104818;1259;59674;-60
2024/02/17 08:11:00;;;;;;;13.30;6.60;;;;;;;4.43;59.83;101777.27;104861;1262;59286;-60
2024/02/17 08:13:28;;;;;;;18.10;5.80;;;;;;;4.48;59.75;101779.04;104833;1259;62826;-66
2024/02/17 08:15:56;;;;;;;14.10;6.50;;;;;;;4.52;59.80;101773.51;106219;1262;60105;-68
2024/02/17 08:18:24;;;;;;;17.20;7.70;;;;;;;4.60;59.85;101774.64;105484;1262;62440;-69
2024/02/17 08:20:52;;;;;;;17.80;7.00;;;;;;;4.66;59.88;101773.39;104777;1260;60393;-69
2024/02/17 08:23:19;;;;;;;15.90;6.80;;;;;;;4.71;60.04;101772.89;104847;1262;59603;-67
2024/02/17 08:25:47;;;;;;;17.70;7.80;;;;;;;4.70;60.00;101770.33;104769;1262;64283;-61
2024/02/17 08:28:15;;;;;;;14.50;7.00;;;;;;;4.68;59.99;101766.92;104792;1263;61531;-62
2024/02/17 08:30:42;;;;;;;16.10;7.40;;;;;;;4.65;60.04;101766.30;104675;1260;66047;-62
2024/02/17 08:33:10;;;;;;;20.10;8.80;;;;;;;4.66;60.26;101765.56;104729;1259;59648;-60
2024/02/17 08:35:38;;;;;;;16.00;9.10;;;;;;;4.69;60.30;101763.91;107557;1261;58091;-60
2024/02/17 08:38:05;;;;;;;21.60;8.90;;;;;;;4.70;60.21;101760.23;104895;1259;64140;-61
2024/02/17 08:40:34;;;;;;;20.20;8.20;;;;;;;4.68;60.14;101758.91;104809;1260;61379;-64
2024/02/17 08:43:02;;;;;;;20.30;10.00;;;;;;;4.64;60.04;101756.27;105266;1258;63735;-67
2024/02/17 08:45:29;;;;;;;17.70;10.30;;;;;;;4.60;60.13;101758.64;105237;1262;59704;-62
2024/02/17 08:47:57;;;;;;;16.10;7.00;;;;;;;4.63;60.13;101755.92;104778;1260;59532;-62
2024/02/17 08:50:25;;;;;;;16.70;6.10;;;;;;;4.69;59.90;101750.88;104880;1260;64729;-65
2024/02/17 08:52:53;;;;;;;17.60;6.70;;;;;;;4.76;59.85;101751.17;106422;1263;60081;-64
2024/02/17 08:55:20;;;;;;;17.50;6.20;;;;;;;4.82;59.80;101751.83;105004;1257;62516;-61
2024/02/17 08:57:48;;;;;;;20.50;7.50;;;;;;;4.88;59.81;101749.38;104944;1260;59770;-63
2024/02/17 09:00:16;;;;;;;24.30;11.30;;;;;;;4.93;59.92;101748.15;104943;1262;59597;-63
2024/02/17 09:02:44;;;;;;;25.50;11.50;;;;;;;4.93;59.80;101749.02;105016;1259;62865;-64
2024/02/17 09:05:15;;;;;;;22.10;11.80;;;;;;;4.88;59.85;101745.54;105129;1260;61998;-63
2024/02/17 09:07:43;;;;;;;35.50;14.40;;;;;;;4.84;59.79;101745.16;104891;1259;63779;-60
2024/02/17 09:10:15;;;;;;;30.90;13.80;;;;;;;4.81;59.76;101744.36;104817;1259;60063;-67
2024/02/17 09:12:43;;;;;;;32.10;14.10;;;;;;;4.83;59.64;101744.84;105047;1262;60009;-63
2024/02/17 09:15:11;;;;;;;45.50;14.30;;;;;;;4.83;59.47;101743.27;105835;1262;62943;-64
2024/02/17 09:17:38;;;;;;;34.10;13.80;;;;;;;4.80;59.40;101742.16;104985;1260;60282;-61
2024/02/17 09:20:10;;;;;;;34.10;13.70;;;;;;;4.77;59.47;101740.16;104909;1259;63781;-63
2024/02/17 09:22:38;;;;;;;30.80;13.30;;;;;;;4.75;59.43;101739.56;105016;1261;59788;-65
2024/02/17 09:25:06;;;;;;;32.90;13.70;;;;;;;4.71;59.37;101738.84;105097;1262;59570;-62
2024/02/17 09:27:34;;;;;;;22.90;9.60;;;;;;;4.71;59.30;101738.65;105085;1260;64270;-63
2024/02/17 09:30:04;;;;;;;33.20;10.50;;;;;;;4.76;59.22;101741.77;105014;1261;60174;-60
2024/02/17 09:32:32;;;;;;;24.70;11.10;;;;;;;4.81;59.28;101738.48;104962;1260;63717;-65
2024/02/17 09:35:00;;;;;;;25.40;9.90;;;;;;;4.86;59.21;101737.11;104915;1262;59743;-63
2024/02/17 09:37:28;;;;;;;34.20;13.60;;;;;;;4.90;59.24;101738.68;105519;1262;59568;-64
2024/02/17 09:39:56;;;;;;;27.10;11.40;;;;;;;4.94;59.13;101738.55;105158;1257;66838;-66
2024/02/17 09:42:25;;;;;;;29.50;11.90;;;;;;;4.93;59.17;101736.67;104937;1258;61308;-64
2024/02/17 09:44:53;;;;;;;33.10;12.30;;;;;;;4.92;59.21;101735.48;105799;1257;63749;-66
2024/02/17 09:47:20;;;;;;;29.50;14.70;;;;;;;4.92;59.26;101734.44;104938;1262;59695;-59
2024/02/17 09:49:49;;;;;;;31.90;13.80;;;;;;;4.92;59.34;101730.64;104876;1262;59656;-58
2024/02/17 09:52:18;;;;;;;26.90;13.00;;;;;;;4.92;59.49;101728.89;105788;1256;62912;-59
2024/02/17 09:54:45;;;;;;;26.60;14.50;;;;;;;4.90;59.48;101724.06;104920;1261;61900;-61
2024/02/17 09:57:14;;;;;;;24.50;9.20;;;;;;;4.88;59.54;101723.10;104735;1260;64634;-59
2024/02/17 09:59:42;;;;;;;26.90;9.80;;;;;;;4.83;59.44;101719.97;105252;1263;60879;-59
2024/02/17 10:02:10;;;;;;;20.70;9.20;;;;;;;4.82;59.38;101717.77;104686;1257;60664;-57
2024/02/17 10:04:58;;;;;;;26.50;11.10;;;;;;;4.88;59.39;101714.75;104908;1256;65232;-59
2024/02/17 10:07:26;;;;;;;21.20;9.20;;;;;;;4.97;59.42;101711.32;106329;1256;62247;-58
2024/02/17 10:09:53;;;;;;;20.80;10.20;;;;;;;5.03;59.42;101710.41;104829;1258;67183;-52
2024/02/17 10:12:21;;;;;;;24.90;11.70;;;;;;;5.07;59.44;101704.71;104991;1260;60528;-63
2024/02/17 10:14:52;;;;;;;18.20;9.30;;;;;;;5.06;59.45;101699.88;104934;1258;60524;-65
2024/02/17 10:17:23;;;;;;;18.40;9.10;;;;;;;5.03;59.42;101703.44;104848;1262;75106;-67
2024/02/17 10:19:54;;;;;;;16.40;7.40;;;;;;;5.00;59.44;101697.80;105638;1257;61800;-71
2024/02/17 10:22:22;;;;;;;21.00;7.70;;;;;;;4.99;59.61;101696.45;106499;1261;66420;-67
2024/02/17 10:24:58;;;;;;;16.60;8.00;;;;;;;5.00;59.59;101690.68;104953;1258;60796;-65
2024/02/17 10:27:25;;;;;;;16.70;7.40;;;;;;;5.00;59.53;101687.90;105520;1262;60693;-64
2024/02/17 10:30:06;;;;;;;18.80;8.20;;;;;;;4.99;59.57;101683.95;105864;1262;65281;-64
2024/02/17 10:32:33;;;;;;;20.70;7.70;;;;;;;4.96;59.51;101679.52;105331;1259;60448;-62
2024/02/17 10:35:02;;;;;;;19.30;7.70;;;;;;;4.94;59.48;101676.31;104824;1261;62654;-61
2024/02/17 10:37:31;;;;;;;13.40;4.70;;;;;;;5.01;59.53;101674.83;104820;1261;60584;-65
2024/02/17 10:40:00;;;;;;;13.60;3.60;;;;;;;5.09;59.48;101677.85;105404;1256;60588;-64
2024/02/17 10:42:27;;;;;;;14.90;6.30;;;;;;;5.16;59.45;101672.89;105275;1261;64859;-65
2024/02/17 10:44:56;;;;;;;17.80;9.00;;;;;;;5.26;59.41;101668.52;104764;1260;72995;-67
2024/02/17 10:47:26;;;;;;;13.50;6.00;;;;;;;5.33;59.45;101667.04;108000;1257;63862;-65
2024/02/17 10:50:09;;;;;;;14.00;6.80;;;;;;;5.37;59.47;101663.41;104910;1262;60495;-64
2024/02/17 10:52:44;;;;;;;14.10;6.40;;;;;;;5.37;59.45;101660.13;105228;1259;60453;-66
2024/02/17 10:55:13;;;;;;;17.10;7.70;;;;;;;5.38;59.28;101656.61;105025;1256;63677;-66
2024/02/17 10:57:56;;;;;;;14.90;7.30;;;;;;;5.35;59.29;101654.61;105282;1260;61885;-61
2024/02/17 11:00:24;;;;;;;16.70;7.90;;;;;;;5.34;59.26;101653.27;105468;1261;62657;-64
2024/02/17 11:02:55;;;;;;;18.00;8.50;;;;;;;5.31;59.26;101650.94;106322;1260;60777;-64
2024/02/17 11:05:22;;;;;;;17.50;8.10;;;;;;;5.27;59.32;101644.84;105527;1257;60560;-63
2024/02/17 11:07:51;;;;;;;16.80;7.30;;;;;;;5.23;59.31;101640.46;105696;1258;63653;-63
2024/02/17 11:10:26;;;;;;;9.90;4.80;;;;;;;5.17;59.23;101634.42;104978;1257;62282;-62
2024/02/17 11:12:55;;;;;;;12.00;6.10;;;;;;;5.13;59.18;101633.52;105693;1257;62508;-61
2024/02/17 11:15:23;;;;;;;13.40;5.80;;;;;;;5.14;59.24;101628.09;104894;1263;60883;-67
2024/02/17 11:17:56;;;;;;;11.70;5.50;;;;;;;5.17;59.20;101625.54;105530;1260;60465;-64
2024/02/17 11:20:25;;;;;;;15.40;6.50;;;;;;;5.21;59.35;101623.30;105469;1261;63745;-63
2024/02/17 11:23:01;;;;;;;12.80;5.60;;;;;;;5.21;59.54;101615.98;105592;1262;60562;-65
2024/02/17 11:25:34;;;;;;;14.30;6.70;;;;;;;5.23;59.54;101613.82;104769;1261;62509;-64
2024/02/17 11:28:16;;;;;;;16.00;5.90;;;;;;;5.23;59.58;101617.85;107758;1261;60473;-65
2024/02/17 11:30:48;;;;;;;15.90;6.40;;;;;;;5.19;59.50;101610.32;106446;1261;60358;-63
2024/02/17 11:33:21;;;;;;;14.00;5.70;;;;;;;5.15;59.58;101608.73;105776;1262;63874;-63
2024/02/17 11:35:49;;;;;;;17.60;8.20;;;;;;;5.13;59.73;101609.53;106356;1258;61496;-64